Terminal Aerodrome Forecast
Issued by NWS

Home | Current Version | Previous Version | Text Only | Print | Product List | Glossary Off
Versions: 1 2 3 4 5 6 7 8 9 10 11 12

900
FTUS43 KMPX 280532
TAFRWF
TAF
KRWF 280532Z 2806/2906 VRB03KT P6SM SCT250
     FM281000 VRB02KT 3SM BR FEW250
     FM281400 VRB03KT P6SM FEW250
     FM282000 09006KT P6SM FEW250=

USA.gov is the U.S. government's official web portal to all federal, state and local government web resources and services.